createdAt,value
2018-05-10T00:00:18.964Z,87.34
2018-05-10T00:01:18.976Z,86.95
2018-05-10T00:02:18.989Z,87.19
2018-05-10T00:03:19.002Z,87.19
2018-05-10T00:04:19.013Z,87.48
2018-05-10T00:05:19.026Z,87.10
2018-05-10T00:06:19.037Z,87.14
2018-05-10T00:07:19.057Z,87.71
2018-05-10T00:08:19.062Z,87.34
2018-05-10T00:09:19.078Z,87.43
2018-05-10T00:10:19.083Z,87.24
2018-05-10T00:11:19.097Z,87.34
2018-05-10T00:12:19.112Z,87.62
2018-05-10T00:13:19.119Z,87.34
2018-05-10T00:14:19.132Z,87.14
2018-05-10T00:15:19.145Z,87.62
2018-05-10T00:16:19.156Z,87.14
2018-05-10T00:17:19.167Z,87.34
2018-05-10T00:18:19.180Z,87.24
2018-05-10T00:19:19.192Z,87.52
2018-05-10T00:20:19.203Z,87.14
2018-05-10T00:21:19.216Z,87.52
2018-05-10T00:22:19.230Z,87.05
2018-05-10T00:23:19.242Z,87.14
2018-05-10T00:24:19.257Z,87.43
2018-05-10T00:25:19.262Z,86.95
2018-05-10T00:26:19.276Z,87.14
2018-05-10T00:27:19.286Z,87.43
2018-05-10T00:28:19.298Z,87.34
2018-05-10T00:29:19.317Z,87.05
2018-05-10T00:30:19.324Z,87.14
2018-05-10T00:31:19.334Z,86.76
2018-05-10T00:32:19.346Z,87.24
2018-05-10T00:33:19.359Z,87.05
2018-05-10T00:34:19.370Z,87.14
2018-05-10T00:35:19.385Z,87.52
2018-05-10T00:36:19.397Z,86.67
2018-05-10T00:37:19.407Z,86.86
2018-05-10T00:38:19.419Z,87.38
2018-05-10T00:39:19.434Z,87.14
2018-05-10T00:40:19.447Z,86.86
2018-05-10T00:41:19.456Z,87.14
2018-05-10T00:44:19.493Z,87.34
2018-05-10T00:45:19.506Z,87.34
2018-05-10T00:46:19.517Z,87.24
2018-05-10T00:47:19.529Z,86.86
2018-05-10T00:48:19.540Z,87.19
2018-05-10T00:49:19.553Z,87.19
2018-05-10T00:50:19.565Z,87.29
2018-05-10T00:51:19.578Z,87.57
2018-05-10T00:52:19.590Z,87.29
2018-05-10T00:53:19.602Z,87.38
2018-05-10T00:54:19.613Z,87.48
2018-05-10T00:55:19.625Z,87.57
2018-05-10T00:56:19.635Z,87.67
2018-05-10T00:57:19.647Z,87.48
2018-05-10T00:58:19.659Z,87.29
2018-05-10T00:59:19.672Z,87.57
2018-05-10T01:00:19.685Z,87.38
2018-05-10T01:01:19.697Z,87.57
2018-05-10T01:02:19.706Z,87.38
2018-05-10T01:03:19.718Z,87.19
2018-05-10T01:04:19.731Z,87.29
2018-05-10T01:05:19.741Z,87.38
2018-05-10T01:06:19.754Z,86.82
2018-05-10T01:07:19.769Z,87.19
2018-05-10T01:08:19.776Z,87.38
2018-05-10T01:09:19.788Z,87.19
2018-05-10T01:10:19.800Z,87.29
2018-05-10T01:11:19.813Z,87.19
2018-05-10T01:12:19.823Z,87.19
2018-05-10T01:13:19.834Z,86.82
2018-05-10T01:14:19.847Z,87.10
2018-05-10T01:15:19.858Z,86.72
2018-05-10T01:16:19.871Z,87.48
2018-05-10T01:17:19.884Z,87.19
2018-05-10T01:18:19.896Z,87.19
2018-05-10T01:19:19.907Z,87.29
2018-05-10T01:20:19.921Z,87.29
2018-05-10T01:21:19.982Z,87.29
2018-05-10T01:22:19.941Z,87.10
2018-05-10T01:23:19.952Z,87.19
2018-05-10T01:24:19.965Z,87.57
2018-05-10T01:25:19.978Z,87.57
2018-05-10T01:26:19.987Z,87.38
2018-05-10T01:27:20.000Z,87.67
2018-05-10T01:28:20.012Z,87.86
2018-05-10T01:29:20.024Z,87.86
2018-05-10T01:30:20.036Z,87.57
2018-05-10T01:31:20.047Z,88.05
2018-05-10T01:32:20.059Z,87.86
2018-05-10T01:33:20.071Z,88.05
2018-05-10T01:34:20.081Z,88.05
2018-05-10T01:35:20.094Z,87.48
2018-05-10T01:36:20.104Z,87.38
2018-05-10T01:37:20.116Z,87.76
2018-05-10T01:38:20.128Z,87.86
2018-05-10T01:39:20.140Z,87.38
2018-05-10T01:40:20.150Z,87.86
2018-05-10T01:41:20.163Z,87.95
2018-05-10T01:42:20.174Z,87.48
2018-05-10T01:43:20.186Z,87.95
2018-05-10T01:44:20.195Z,87.38
2018-05-10T01:45:20.210Z,87.76
2018-05-10T01:46:20.223Z,88.05
2018-05-10T01:47:20.231Z,87.95
2018-05-10T01:48:20.242Z,87.95
2018-05-10T01:49:20.255Z,87.95
2018-05-10T01:50:20.265Z,87.57
2018-05-10T01:51:20.276Z,87.38
2018-05-10T01:52:20.287Z,87.48
2018-05-10T01:53:20.322Z,87.48
2018-05-10T01:54:20.310Z,87.48
2018-05-10T01:55:20.323Z,87.57
2018-05-10T01:56:20.333Z,87.57
2018-05-10T01:57:20.344Z,87.67
2018-05-10T01:58:20.355Z,87.38
2018-05-10T01:59:20.368Z,87.48
2018-05-10T02:00:20.377Z,87.48
2018-05-10T02:01:20.389Z,87.57
2018-05-10T02:02:20.402Z,87.82
2018-05-10T02:03:20.415Z,87.91
2018-05-10T02:04:20.423Z,87.34
2018-05-10T02:05:20.436Z,87.62
2018-05-10T02:06:20.447Z,87.82
2018-05-10T02:07:20.463Z,87.62
2018-05-10T02:08:20.470Z,87.62
2018-05-10T02:09:20.482Z,88.20
2018-05-10T02:10:20.498Z,87.53
2018-05-10T02:11:20.504Z,87.34
2018-05-10T02:12:20.513Z,87.72
2018-05-10T02:13:20.527Z,87.72
2018-05-10T02:14:20.538Z,88.01
2018-05-10T02:15:20.549Z,87.82
2018-05-10T02:16:20.563Z,87.34
2018-05-10T02:17:20.570Z,88.05
2018-05-10T02:18:20.581Z,87.67
2018-05-10T02:19:20.594Z,87.76
2018-05-10T02:20:20.603Z,87.48
2018-05-10T02:21:20.614Z,87.57
2018-05-10T02:22:20.627Z,87.48
2018-05-10T02:23:20.639Z,88.05
2018-05-10T02:24:20.647Z,87.29
2018-05-10T02:25:20.659Z,87.38
2018-05-10T02:26:20.673Z,87.57
2018-05-10T02:27:20.683Z,87.67
2018-05-10T02:28:20.693Z,87.86
2018-05-10T02:29:20.705Z,87.57
2018-05-10T02:30:20.716Z,87.86
2018-05-10T02:31:20.731Z,87.76
2018-05-10T02:32:20.737Z,87.76
2018-05-10T02:33:20.749Z,87.67
2018-05-10T02:34:20.761Z,87.76
2018-05-10T02:35:20.772Z,87.86
2018-05-10T02:36:20.808Z,87.48
2018-05-10T02:37:20.794Z,87.48
2018-05-10T02:38:20.806Z,87.67
2018-05-10T02:39:20.817Z,87.57
2018-05-10T02:40:20.829Z,88.05
2018-05-10T02:41:20.839Z,87.29
2018-05-10T02:42:20.852Z,87.67
2018-05-10T02:43:20.867Z,87.38
2018-05-10T02:44:20.873Z,88.05
2018-05-10T02:45:20.883Z,88.05
2018-05-10T02:46:20.896Z,87.67
2018-05-10T02:47:20.908Z,87.19
2018-05-10T02:48:20.919Z,87.57
2018-05-10T02:49:20.929Z,87.38
2018-05-10T02:50:20.941Z,87.48
2018-05-10T02:51:20.953Z,87.48
2018-05-10T02:52:20.964Z,87.67
2018-05-10T02:53:20.979Z,87.95
2018-05-10T02:54:20.988Z,87.67
2018-05-10T02:55:21.004Z,87.48
2018-05-10T02:56:21.009Z,87.48
2018-05-10T02:57:21.026Z,87.19
2018-05-10T02:58:21.037Z,87.38
2018-05-10T02:59:21.047Z,87.10
2018-05-10T03:00:21.056Z,88.15
2018-05-10T03:01:21.071Z,87.29
2018-05-10T03:02:21.081Z,87.48
2018-05-10T03:03:21.091Z,87.19
2018-05-10T03:04:21.104Z,87.38
2018-05-10T03:05:21.112Z,87.48
2018-05-10T03:06:21.124Z,87.57
2018-05-10T03:07:21.134Z,87.86
2018-05-10T03:08:21.145Z,87.95
2018-05-10T03:09:21.156Z,87.57
2018-05-10T03:10:21.171Z,87.29
2018-05-10T03:11:21.181Z,87.86
2018-05-10T03:12:21.191Z,87.38
2018-05-10T03:13:21.203Z,87.67
2018-05-10T03:14:21.252Z,87.38
2018-05-10T03:15:21.227Z,87.48
2018-05-10T03:16:21.236Z,87.48
2018-05-10T03:17:21.249Z,87.10
2018-05-10T03:18:21.259Z,87.57
2018-05-10T03:19:21.271Z,87.29
2018-05-10T03:20:21.283Z,87.57
2018-05-10T03:21:21.292Z,87.95
2018-05-10T03:22:21.305Z,87.67
2018-05-10T03:23:21.319Z,87.48
2018-05-10T03:24:21.329Z,87.29
2018-05-10T03:25:21.337Z,87.86
2018-05-10T03:26:21.350Z,87.67
2018-05-10T03:27:21.361Z,87.57
2018-05-10T03:28:21.373Z,87.10
2018-05-10T03:29:21.384Z,87.29
2018-05-10T03:30:21.401Z,87.95
2018-05-10T03:31:21.407Z,87.76
2018-05-10T03:32:21.420Z,87.38
2018-05-10T03:33:21.532Z,87.76
2018-05-10T03:34:21.445Z,87.86
2018-05-10T03:35:21.453Z,87.76
2018-05-10T03:36:21.463Z,87.48
2018-05-10T03:37:21.477Z,87.48
2018-05-10T03:38:21.487Z,87.29
2018-05-10T03:39:21.500Z,87.48
2018-05-10T03:40:21.571Z,87.67
2018-05-10T03:41:21.521Z,87.10
2018-05-10T03:42:21.533Z,87.57
2018-05-10T03:43:21.544Z,87.76
2018-05-10T03:44:21.553Z,87.57
2018-05-10T03:45:21.565Z,87.48
2018-05-10T03:46:21.595Z,87.57
2018-05-10T03:47:21.590Z,87.29
2018-05-10T03:48:21.600Z,87.57
2018-05-10T03:49:21.611Z,87.38
2018-05-10T03:50:21.626Z,87.19
2018-05-10T03:51:21.633Z,87.48
2018-05-10T03:52:21.646Z,87.29
2018-05-10T03:53:21.657Z,87.29
2018-05-10T03:54:21.672Z,87.76
2018-05-10T03:55:21.680Z,87.38
2018-05-10T03:56:21.691Z,87.86
2018-05-10T03:57:21.703Z,87.29
2018-05-10T03:58:21.715Z,87.57
2018-05-10T03:59:21.725Z,87.86
2018-05-10T04:00:21.737Z,87.57
2018-05-10T04:01:21.748Z,87.19
2018-05-10T04:02:21.761Z,87.76
2018-05-10T04:03:21.772Z,87.57
2018-05-10T04:04:21.783Z,87.76
2018-05-10T04:05:21.799Z,87.57
2018-05-10T04:06:21.804Z,87.57
2018-05-10T04:07:21.816Z,87.57
2018-05-10T04:08:21.828Z,87.38
2018-05-10T04:09:21.840Z,87.57
2018-05-10T04:10:21.851Z,88.05
2018-05-10T04:11:21.862Z,87.38
2018-05-10T04:12:21.873Z,87.38
2018-05-10T04:13:21.884Z,87.67
2018-05-10T04:14:21.896Z,87.38
2018-05-10T04:15:21.913Z,87.38
2018-05-10T04:16:21.923Z,87.01
2018-05-10T04:17:21.931Z,87.38
2018-05-10T04:18:21.942Z,87.38
2018-05-10T04:19:21.955Z,87.48
2018-05-10T04:20:21.967Z,87.19
2018-05-10T04:21:21.978Z,87.57
2018-05-10T04:22:21.993Z,87.19
2018-05-10T04:23:22.000Z,87.38
2018-05-10T04:24:22.013Z,87.48
2018-05-10T04:25:22.022Z,87.48
2018-05-10T04:26:22.037Z,87.29
2018-05-10T04:27:22.047Z,87.57
2018-05-10T04:28:22.056Z,87.29
2018-05-10T04:29:22.070Z,87.48
2018-05-10T04:30:22.082Z,87.57
2018-05-10T04:31:22.092Z,87.48
2018-05-10T04:32:22.108Z,87.48
2018-05-10T04:33:22.114Z,87.48
2018-05-10T04:34:22.126Z,87.29
2018-05-10T04:35:22.139Z,87.57
2018-05-10T04:36:22.149Z,87.38
2018-05-10T04:37:22.161Z,87.57
2018-05-10T04:38:22.172Z,87.38
2018-05-10T04:39:22.186Z,87.48
2018-05-10T04:40:22.194Z,87.86
2018-05-10T04:41:22.207Z,87.48
2018-05-10T04:42:22.260Z,87.57
2018-05-10T04:43:22.231Z,87.76
2018-05-10T04:44:22.241Z,87.48
2018-05-10T04:45:22.252Z,87.29
2018-05-10T04:46:22.264Z,87.29
2018-05-10T04:47:22.277Z,87.67
2018-05-10T04:48:22.286Z,86.91
2018-05-10T04:49:22.300Z,87.76
2018-05-10T04:50:22.311Z,87.01
2018-05-10T04:51:22.325Z,87.38
2018-05-10T04:52:22.336Z,87.67
2018-05-10T04:53:22.344Z,87.57
2018-05-10T04:54:22.355Z,87.57
2018-05-10T04:55:22.368Z,87.38
2018-05-10T04:56:22.377Z,87.57
2018-05-10T04:57:22.393Z,87.57
2018-05-10T04:58:22.401Z,87.38
2018-05-10T04:59:22.414Z,87.57
2018-05-10T05:00:22.426Z,87.86
2018-05-10T05:01:22.437Z,87.38
2018-05-10T05:02:22.447Z,87.57
2018-05-10T05:03:22.556Z,87.57
2018-05-10T05:04:22.471Z,87.48
2018-05-10T05:05:22.483Z,87.67
2018-05-10T05:06:22.495Z,87.76
2018-05-10T05:07:22.506Z,87.76
2018-05-10T05:08:22.517Z,86.72
2018-05-10T05:09:22.529Z,87.19
2018-05-10T05:10:22.539Z,87.29
2018-05-10T05:11:22.553Z,86.72
2018-05-10T05:12:22.565Z,87.10
2018-05-10T05:13:22.575Z,87.48
2018-05-10T05:14:22.589Z,87.19
2018-05-10T05:15:22.602Z,87.67
2018-05-10T05:16:22.608Z,87.57
2018-05-10T05:17:22.621Z,87.57
2018-05-10T05:18:22.633Z,87.67
2018-05-10T05:19:22.645Z,87.76
2018-05-10T05:20:22.654Z,87.38
2018-05-10T05:21:22.667Z,87.48
2018-05-10T05:22:22.682Z,87.57
2018-05-10T05:23:22.690Z,86.34
2018-05-10T05:24:22.701Z,87.57
2018-05-10T05:25:22.713Z,86.91
2018-05-10T05:26:22.724Z,87.95
2018-05-10T05:27:22.739Z,87.38
2018-05-10T05:28:22.747Z,87.67
2018-05-10T05:29:22.760Z,87.38
2018-05-10T05:30:22.770Z,87.38
2018-05-10T05:31:22.783Z,87.38
2018-05-10T05:32:22.794Z,87.48
2018-05-10T05:33:22.808Z,87.57
2018-05-10T05:34:22.818Z,87.67
2018-05-10T05:35:22.831Z,87.67
2018-05-10T05:36:22.839Z,85.68
2018-05-10T05:37:22.853Z,87.86
2018-05-10T05:38:22.865Z,87.86
2018-05-10T05:39:22.876Z,87.57
2018-05-10T05:40:22.885Z,87.57
2018-05-10T05:41:22.991Z,87.57
2018-05-10T05:42:22.911Z,87.57
2018-05-10T05:43:23.038Z,85.49
2018-05-10T05:44:22.934Z,87.38
2018-05-10T05:45:22.946Z,86.91
2018-05-10T05:46:22.956Z,87.29
2018-05-10T05:47:22.969Z,86.63
2018-05-10T05:48:22.978Z,87.29
2018-05-10T05:49:22.991Z,86.34
2018-05-10T05:50:23.003Z,87.29
2018-05-10T05:51:23.014Z,87.38
2018-05-10T05:52:23.029Z,87.29
2018-05-10T05:53:23.037Z,86.72
2018-05-10T05:54:23.055Z,86.34
2018-05-10T05:55:23.059Z,86.24
2018-05-10T05:56:23.073Z,87.29
2018-05-10T05:57:23.083Z,86.24
2018-05-10T05:58:23.099Z,86.05
2018-05-10T05:59:23.107Z,86.05
2018-05-10T06:00:23.117Z,86.72
2018-05-10T06:01:23.129Z,86.53
2018-05-10T06:02:23.141Z,86.63
2018-05-10T06:03:23.154Z,85.77
2018-05-10T06:04:23.164Z,87.01
2018-05-10T06:05:23.172Z,85.86
2018-05-10T06:06:23.186Z,85.86
2018-05-10T06:07:23.205Z,85.58
2018-05-10T06:08:23.213Z,85.96
2018-05-10T06:09:23.223Z,85.63
2018-05-10T06:10:23.232Z,85.20
2018-05-10T06:11:23.243Z,85.77
2018-05-10T06:12:23.337Z,85.77
2018-05-10T06:13:23.275Z,85.68
2018-05-10T06:14:23.277Z,85.68
2018-05-10T06:15:23.366Z,84.44
2018-05-10T06:16:23.299Z,85.68
2018-05-10T06:17:23.311Z,84.63
2018-05-10T06:18:23.328Z,85.20
2018-05-10T06:19:23.336Z,84.97
2018-05-10T06:20:23.346Z,85.11
2018-05-10T06:21:23.358Z,84.49
2018-05-10T06:22:23.368Z,84.59
2018-05-10T06:23:23.381Z,84.01
2018-05-10T06:24:23.395Z,85.25
2018-05-10T06:25:23.401Z,84.91
2018-05-10T06:26:23.417Z,85.77
2018-05-10T06:27:23.426Z,85.39
2018-05-10T06:28:23.438Z,84.34
2018-05-10T06:29:23.450Z,85.39
2018-05-10T06:30:23.460Z,85.68
2018-05-10T06:31:23.471Z,85.96
2018-05-10T06:32:23.481Z,86.05
2018-05-10T06:33:23.492Z,85.77
2018-05-10T06:34:23.503Z,85.86
2018-05-10T06:35:23.520Z,85.96
2018-05-10T06:36:23.526Z,85.91
2018-05-10T06:37:23.541Z,85.05
2018-05-10T06:38:23.550Z,85.58
2018-05-10T06:39:23.560Z,85.86
2018-05-10T06:40:23.572Z,85.58
2018-05-10T06:41:23.588Z,85.20
2018-05-10T06:42:23.595Z,85.58
2018-05-10T06:43:23.606Z,86.05
2018-05-10T06:44:23.621Z,86.29
2018-05-10T06:45:23.634Z,85.39
2018-05-10T06:46:23.641Z,85.68
2018-05-10T06:47:23.652Z,86.24
2018-05-10T06:48:23.664Z,85.77
2018-05-10T06:49:23.675Z,85.96
2018-05-10T06:50:23.690Z,85.86
2018-05-10T06:51:23.700Z,85.77
2018-05-10T06:52:23.709Z,86.24
2018-05-10T06:53:23.721Z,85.11
2018-05-10T06:54:23.734Z,86.91
2018-05-10T06:55:23.823Z,86.53
2018-05-10T06:56:23.757Z,85.49
2018-05-10T06:57:23.766Z,84.72
2018-05-10T06:58:23.783Z,85.96
2018-05-10T06:59:23.796Z,85.30
2018-05-10T07:00:23.808Z,86.15
2018-05-10T07:01:23.813Z,86.15
2018-05-10T07:02:23.823Z,85.20
2018-05-10T07:03:23.913Z,85.11
2018-05-10T07:04:23.845Z,85.77
2018-05-10T07:05:23.861Z,85.20
2018-05-10T07:06:23.870Z,86.53
2018-05-10T07:07:23.881Z,85.39
2018-05-10T07:08:23.895Z,85.68
2018-05-10T07:09:23.983Z,85.96
2018-05-10T07:10:23.919Z,86.91
2018-05-10T07:11:23.926Z,85.01
2018-05-10T07:12:23.937Z,86.67
2018-05-10T07:13:23.947Z,85.91
2018-05-10T07:14:23.960Z,86.47
2018-05-10T07:15:23.971Z,84.01
2018-05-10T07:16:23.987Z,83.62
2018-05-10T07:17:23.994Z,86.47
2018-05-10T07:18:24.006Z,84.77
2018-05-10T07:19:24.095Z,85.20
2018-05-10T07:20:24.029Z,85.01
2018-05-10T07:21:24.041Z,84.34
2018-05-10T07:22:24.053Z,84.44
2018-05-10T07:23:24.063Z,84.72
2018-05-10T07:24:24.078Z,84.16
2018-05-10T07:25:24.201Z,84.82
2018-05-10T07:26:24.098Z,86.10
2018-05-10T07:27:24.110Z,86.10
2018-05-10T07:28:24.120Z,85.43
2018-05-10T07:29:24.133Z,86.10
2018-05-10T07:30:24.145Z,86.47
2018-05-10T07:31:24.155Z,87.09
2018-05-10T07:32:24.166Z,85.28
2018-05-10T07:33:24.178Z,81.48
2018-05-10T07:34:24.191Z,86.24
2018-05-10T07:35:24.203Z,88.52
2018-05-10T07:36:24.216Z,88.42
2018-05-10T07:37:24.243Z,85.76
2018-05-10T07:38:24.245Z,86.33
2018-05-10T07:39:24.289Z,86.24
2018-05-10T07:40:24.267Z,83.39
2018-05-10T07:41:24.328Z,88.52
2018-05-10T07:42:24.286Z,84.43
2018-05-10T07:43:24.298Z,82.77
2018-05-10T07:44:24.307Z,85.28
2018-05-10T07:45:24.320Z,86.14
2018-05-10T07:46:24.335Z,85.57
2018-05-10T07:47:24.425Z,88.23
2018-05-10T07:48:24.357Z,86.33
2018-05-10T07:49:24.371Z,84.05
2018-05-10T07:50:24.377Z,85.86
2018-05-10T07:51:24.389Z,85.66
2018-05-10T07:52:24.401Z,88.71
2018-05-10T07:53:24.414Z,88.90
2018-05-10T07:54:24.427Z,81.62
2018-05-10T07:55:24.444Z,84.19
2018-05-10T07:56:24.544Z,84.00
2018-05-10T07:57:24.463Z,82.81
2018-05-10T07:58:24.477Z,83.48
2018-05-10T07:59:24.485Z,83.00
2018-05-10T08:00:24.501Z,82.48
2018-05-10T08:01:24.515Z,84.91
2018-05-10T08:02:24.589Z,85.28
2018-05-10T08:03:24.536Z,84.38
2018-05-10T08:04:24.546Z,85.10
2018-05-10T08:05:24.559Z,85.24
2018-05-10T08:06:24.573Z,84.56
2018-05-10T08:07:24.581Z,85.42
2018-05-10T08:08:24.592Z,85.99
2018-05-10T08:09:24.605Z,85.61
2018-05-10T08:10:24.623Z,85.52
2018-05-10T08:11:24.630Z,87.23
2018-05-10T08:12:24.642Z,84.56
2018-05-10T08:13:24.654Z,85.42
2018-05-10T08:14:24.670Z,84.09
2018-05-10T08:15:24.677Z,82.00
2018-05-10T08:16:24.691Z,85.66
2018-05-10T08:17:24.702Z,84.14
2018-05-10T08:18:24.715Z,84.72
2018-05-10T08:19:24.727Z,84.43
2018-05-10T08:20:24.740Z,84.33
2018-05-10T08:21:24.753Z,85.66
2018-05-10T08:22:24.763Z,83.29
2018-05-10T08:23:24.777Z,85.28
2018-05-10T08:24:24.787Z,85.42
2018-05-10T08:25:24.803Z,85.80
2018-05-10T08:26:24.814Z,85.42
2018-05-10T08:27:24.825Z,83.90
2018-05-10T08:28:24.843Z,84.66
2018-05-10T08:29:24.852Z,82.86
2018-05-10T08:30:24.860Z,86.14
2018-05-10T08:31:24.872Z,82.95
2018-05-10T08:32:24.888Z,84.47
2018-05-10T08:33:24.896Z,84.47
2018-05-10T08:34:24.910Z,84.95
2018-05-10T08:35:24.922Z,84.85
2018-05-10T08:36:25.036Z,84.09
2018-05-10T08:37:24.946Z,84.66
2018-05-10T08:38:24.957Z,82.67
2018-05-10T08:39:24.969Z,83.71
2018-05-10T08:40:24.981Z,85.24
2018-05-10T08:41:24.991Z,85.99
2018-05-10T08:42:25.005Z,86.57
2018-05-10T08:43:25.022Z,84.05
2018-05-10T08:44:25.029Z,83.48
2018-05-10T08:45:25.044Z,83.48
2018-05-10T08:46:25.057Z,81.86
2018-05-10T08:47:25.066Z,84.81
2018-05-10T08:48:25.078Z,86.43
2018-05-10T08:49:25.090Z,85.52
2018-05-10T08:50:25.102Z,85.42
2018-05-10T08:51:25.115Z,86.18
2018-05-10T08:52:25.126Z,86.47
2018-05-10T08:53:25.144Z,86.57
2018-05-10T08:54:25.151Z,86.09
2018-05-10T08:55:25.166Z,85.71
2018-05-10T08:56:25.176Z,85.14
2018-05-10T08:57:25.186Z,85.90
2018-05-10T08:58:25.199Z,84.76
2018-05-10T08:59:25.223Z,86.13
2018-05-10T09:00:25.224Z,87.13
2018-05-10T09:01:25.238Z,86.61
2018-05-10T09:02:25.250Z,86.28
2018-05-10T09:03:25.265Z,84.47
2018-05-10T09:04:25.280Z,84.95
2018-05-10T09:05:25.290Z,83.81
2018-05-10T09:06:25.304Z,85.99
2018-05-10T09:07:25.410Z,84.81
2018-05-10T09:08:25.325Z,87.42
2018-05-10T09:09:25.338Z,86.09
2018-05-10T09:10:25.349Z,87.04
2018-05-10T09:11:25.362Z,84.09
2018-05-10T09:12:25.374Z,87.61
2018-05-10T09:13:25.388Z,85.71
2018-05-10T09:14:25.400Z,86.09
2018-05-10T09:15:25.413Z,85.24
2018-05-10T09:16:25.430Z,85.14
2018-05-10T09:17:25.443Z,89.14
2018-05-10T09:18:25.453Z,87.80
2018-05-10T09:19:25.463Z,85.80
2018-05-10T09:20:25.474Z,86.32
2018-05-10T09:21:25.489Z,86.47
2018-05-10T09:22:25.503Z,87.99
2018-05-10T09:23:25.517Z,86.09
2018-05-10T09:24:25.521Z,86.66
2018-05-10T09:25:25.535Z,85.42
2018-05-10T09:26:25.548Z,85.14
2018-05-10T09:27:25.560Z,84.56
2018-05-10T09:28:25.571Z,88.18
2018-05-10T09:29:25.583Z,86.94
2018-05-10T09:30:25.599Z,86.18
2018-05-10T09:31:25.611Z,86.09
2018-05-10T09:32:25.626Z,86.85
2018-05-10T09:33:25.634Z,86.38
2018-05-10T09:34:25.649Z,86.09
2018-05-10T09:35:25.660Z,85.33
2018-05-10T09:36:25.670Z,86.94
2018-05-10T09:37:25.683Z,87.32
2018-05-10T09:38:25.695Z,87.23
2018-05-10T09:39:25.802Z,85.80
2018-05-10T09:40:25.719Z,86.57
2018-05-10T09:41:25.735Z,85.04
2018-05-10T09:42:25.744Z,86.43
2018-05-10T09:43:25.757Z,86.90
2018-05-10T09:44:25.781Z,84.52
2018-05-10T09:45:25.783Z,86.24
2018-05-10T09:46:25.794Z,85.52
2018-05-10T09:47:25.809Z,86.57
2018-05-10T09:48:25.822Z,85.99
2018-05-10T09:49:25.830Z,86.47
2018-05-10T09:50:25.844Z,86.76
2018-05-10T09:51:25.856Z,87.23
2018-05-10T09:52:25.869Z,85.19
2018-05-10T09:53:25.883Z,85.28
2018-05-10T09:54:25.897Z,85.47
2018-05-10T09:55:25.916Z,86.76
2018-05-10T09:56:25.920Z,86.47
2018-05-10T09:57:25.929Z,85.71
2018-05-10T09:58:25.948Z,85.61
2018-05-10T09:59:25.958Z,86.05
2018-05-10T10:00:25.969Z,85.28
2018-05-10T10:01:25.984Z,84.38
2018-05-10T10:02:25.995Z,86.14
2018-05-10T10:03:26.005Z,84.95
2018-05-10T10:04:26.024Z,85.38
2018-05-10T10:05:26.032Z,85.38
2018-05-10T10:06:26.039Z,86.57
2018-05-10T10:07:26.054Z,84.62
2018-05-10T10:08:26.062Z,85.38
2018-05-10T10:09:26.081Z,84.91
2018-05-10T10:10:26.089Z,85.76
2018-05-10T10:11:26.103Z,85.47
2018-05-10T10:12:26.113Z,86.71
2018-05-10T10:13:26.128Z,85.47
2018-05-10T10:14:26.137Z,85.10
2018-05-10T10:15:26.150Z,86.33
2018-05-10T10:16:26.163Z,86.05
2018-05-10T10:17:26.176Z,85.76
2018-05-10T10:18:26.189Z,86.14
2018-05-10T10:19:26.200Z,85.76
2018-05-10T10:20:26.213Z,87.19
2018-05-10T10:21:26.224Z,86.43
2018-05-10T10:22:26.235Z,84.62
2018-05-10T10:23:26.249Z,86.05
2018-05-10T10:24:26.262Z,85.10
2018-05-10T10:25:26.277Z,86.71
2018-05-10T10:26:26.285Z,85.19
2018-05-10T10:27:26.309Z,86.19
2018-05-10T10:28:26.310Z,85.72
2018-05-10T10:29:26.321Z,84.62
2018-05-10T10:30:26.334Z,86.24
2018-05-10T10:31:26.346Z,86.00
2018-05-10T10:32:26.436Z,85.34
2018-05-10T10:33:26.368Z,85.43
2018-05-10T10:34:26.436Z,85.34
2018-05-10T10:35:26.394Z,85.81
2018-05-10T10:36:26.405Z,83.91
2018-05-10T10:37:26.418Z,85.86
2018-05-10T10:38:26.431Z,85.57
2018-05-10T10:39:26.443Z,85.47
2018-05-10T10:40:26.454Z,85.47
2018-05-10T10:41:26.466Z,87.57
2018-05-10T10:42:26.484Z,85.47
2018-05-10T10:43:26.492Z,88.61
2018-05-10T10:44:26.502Z,84.39
2018-05-10T10:45:26.578Z,85.47
2018-05-10T10:46:26.527Z,85.38
2018-05-10T10:47:26.536Z,85.28
2018-05-10T10:48:26.550Z,86.24
2018-05-10T10:49:26.567Z,84.77
2018-05-10T10:50:26.573Z,85.34
2018-05-10T10:51:26.587Z,85.05
2018-05-10T10:52:26.594Z,84.77
2018-05-10T10:53:26.609Z,84.67
2018-05-10T10:54:26.620Z,85.34
2018-05-10T10:55:26.635Z,83.34
2018-05-10T10:56:26.645Z,84.52
2018-05-10T10:57:26.657Z,87.24
2018-05-10T10:58:26.669Z,83.34
2018-05-10T10:59:26.680Z,85.15
2018-05-10T11:00:26.693Z,85.05
2018-05-10T11:01:26.705Z,84.86
2018-05-10T11:02:26.720Z,84.86
2018-05-10T11:03:26.728Z,83.82
2018-05-10T11:04:26.750Z,84.10
2018-05-10T11:05:26.752Z,83.91
2018-05-10T11:06:26.764Z,84.58
2018-05-10T11:07:26.776Z,85.34
2018-05-10T11:08:26.787Z,84.39
2018-05-10T11:09:26.798Z,84.05
2018-05-10T11:10:26.810Z,85.34
2018-05-10T11:11:26.823Z,85.72
2018-05-10T11:12:26.833Z,85.91
2018-05-10T11:13:26.847Z,86.47
2018-05-10T11:14:26.856Z,84.67
2018-05-10T11:15:26.872Z,82.77
2018-05-10T11:16:26.881Z,84.95
2018-05-10T11:17:26.894Z,86.00
2018-05-10T11:18:26.906Z,86.10
2018-05-10T11:19:26.917Z,86.71
2018-05-10T11:20:26.928Z,84.72
2018-05-10T11:21:26.940Z,86.14
2018-05-10T11:22:26.954Z,85.91
2018-05-10T11:23:26.966Z,85.81
2018-05-10T11:24:26.979Z,84.91
2018-05-10T11:25:26.986Z,86.76
2018-05-10T11:26:26.999Z,87.09
2018-05-10T11:27:27.066Z,86.05
2018-05-10T11:28:27.025Z,87.47
2018-05-10T11:29:27.035Z,85.28
2018-05-10T11:30:27.051Z,86.14
2018-05-10T11:31:27.058Z,86.61
2018-05-10T11:32:27.071Z,85.47
2018-05-10T11:33:27.084Z,86.33
2018-05-10T11:34:27.097Z,85.57
2018-05-10T11:35:27.105Z,85.57
2018-05-10T11:36:27.119Z,87.19
2018-05-10T11:37:27.130Z,86.14
2018-05-10T11:38:27.142Z,85.66
2018-05-10T11:39:27.154Z,86.14
2018-05-10T11:40:27.167Z,85.86
2018-05-10T11:41:27.179Z,85.19
2018-05-10T11:42:27.191Z,86.14
2018-05-10T11:43:27.207Z,85.76
2018-05-10T11:44:27.271Z,84.91
2018-05-10T11:45:27.228Z,84.24
2018-05-10T11:46:27.236Z,87.28
2018-05-10T11:47:27.250Z,84.91
2018-05-10T11:48:27.268Z,85.95
2018-05-10T11:49:27.277Z,85.28
2018-05-10T11:50:27.284Z,85.76
2018-05-10T11:51:27.296Z,86.33
2018-05-10T11:52:27.311Z,86.33
2018-05-10T11:53:27.320Z,86.80
2018-05-10T11:54:27.334Z,85.38
2018-05-10T11:55:27.346Z,86.43
2018-05-10T11:56:27.356Z,86.43
2018-05-10T11:57:27.377Z,86.66
2018-05-10T11:58:27.380Z,86.38
2018-05-10T11:59:27.394Z,86.85
2018-05-10T12:00:27.404Z,87.61
2018-05-10T12:01:27.416Z,86.38
2018-05-10T12:02:27.525Z,87.42
2018-05-10T12:03:27.442Z,87.52
2018-05-10T12:04:27.454Z,88.56
2018-05-10T12:05:27.465Z,84.47
2018-05-10T12:06:27.477Z,87.71
2018-05-10T12:07:27.494Z,84.47
2018-05-10T12:08:27.501Z,84.19
2018-05-10T12:09:27.514Z,85.52
2018-05-10T12:10:27.528Z,84.00
2018-05-10T12:11:27.540Z,82.67
2018-05-10T12:12:27.550Z,84.14
2018-05-10T12:13:27.561Z,83.86
2018-05-10T12:14:27.578Z,84.05
2018-05-10T12:15:27.587Z,83.39
2018-05-10T12:16:27.600Z,84.56
2018-05-10T12:17:27.613Z,84.38
2018-05-10T12:18:27.626Z,84.09
2018-05-10T12:19:27.637Z,83.90
2018-05-10T12:20:27.720Z,82.86
2018-05-10T12:21:27.664Z,83.90
2018-05-10T12:22:27.674Z,84.66
2018-05-10T12:23:27.687Z,84.85
2018-05-10T12:24:27.698Z,84.19
2018-05-10T12:25:27.713Z,83.90
2018-05-10T12:26:27.745Z,83.62
2018-05-10T12:27:27.736Z,83.90
2018-05-10T12:28:27.747Z,84.66
2018-05-10T12:29:27.771Z,84.09
2018-05-10T12:30:27.819Z,83.86
2018-05-10T12:31:27.788Z,83.10
2018-05-10T12:32:27.808Z,83.76
2018-05-10T12:33:27.813Z,82.48
2018-05-10T12:34:27.823Z,84.19
2018-05-10T12:35:27.836Z,84.09
2018-05-10T12:36:27.846Z,83.04
2018-05-10T12:37:27.860Z,90.94
2018-05-10T12:38:27.877Z,88.94
2018-05-10T12:39:27.887Z,86.13
2018-05-10T12:40:27.902Z,85.28
2018-05-10T12:41:27.910Z,88.79
2018-05-10T12:42:27.925Z,87.37
2018-05-10T12:43:27.935Z,84.80
2018-05-10T12:44:27.955Z,86.70
2018-05-10T12:45:27.961Z,84.13
2018-05-10T12:46:27.972Z,84.13
2018-05-10T12:47:27.988Z,84.28
2018-05-10T12:48:27.999Z,84.52
2018-05-10T12:49:28.017Z,82.42
2018-05-10T12:50:28.026Z,84.09
2018-05-10T12:51:28.037Z,83.23
2018-05-10T12:52:28.055Z,82.86
2018-05-10T12:53:28.063Z,81.81
2018-05-10T12:54:28.075Z,82.38